White Lake, South Dakota
Current Conditions -  °F | °C
As of 4:15 AM on Sunday 26 Oct 2014 (Local Time) from K9V9 Reporting Station
Clear Clear  
Wind Chill: 39°   Ceiling: Unl
Heat Index: 44°   Visibility: 10mi
Dew Point: 35°   Wind: 9mph
Humidity: 70%   Direction: 120°ESE
Pressure: 29.85"   Gusts: NA
Location:  43.73°N, 98.71°W
Report Text: K9V9 260915Z AUTO 12008KT 10SM CLR 07/02 A2985 RMK AO2 T00670015
Loading
Personal Weather Stations






























Interactive Weather Map
Tropical Storm Tracking
New forecast layout! Learn more

10-Day Weather Forecast

Advertisements
Track Severe Weather on mobile